sensor_id;sensor_type;location;lat;lon;timestamp;temperature;humidity
52849;DHT22;38714;53.180;5.812;2024-01-25T00:01:28;7.10;99.90
52849;DHT22;38714;53.180;5.812;2024-01-25T00:03:54;7.10;99.90
52849;DHT22;38714;53.180;5.812;2024-01-25T00:06:19;7.00;99.90
52849;DHT22;38714;53.180;5.812;2024-01-25T00:08:46;7.00;99.90
52849;DHT22;38714;53.180;5.812;2024-01-25T00:11:12;7.00;99.90
52849;DHT22;38714;53.180;5.812;2024-01-25T00:13:37;7.00;99.90
52849;DHT22;38714;53.180;5.812;2024-01-25T00:16:04;6.90;99.90
52849;DHT22;38714;53.180;5.812;2024-01-25T00:18:30;7.00;99.90
52849;DHT22;38714;53.180;5.812;2024-01-25T00:20:56;6.90;99.90
52849;DHT22;38714;53.180;5.812;2024-01-25T00:23:21;6.90;99.90
52849;DHT22;38714;53.180;5.812;2024-01-25T00:25:47;6.90;99.90
52849;DHT22;38714;53.180;5.812;2024-01-25T00:28:13;6.90;99.90
52849;DHT22;38714;53.180;5.812;2024-01-25T00:30:39;6.90;99.90
52849;DHT22;38714;53.180;5.812;2024-01-25T00:33:04;6.90;99.90
52849;DHT22;38714;53.180;5.812;2024-01-25T00:35:31;6.90;99.90
52849;DHT22;38714;53.180;5.812;2024-01-25T00:37:56;6.90;99.90
52849;DHT22;38714;53.180;5.812;2024-01-25T00:40:22;6.90;99.90
52849;DHT22;38714;53.180;5.812;2024-01-25T00:42:49;6.90;99.90
52849;DHT22;38714;53.180;5.812;2024-01-25T00:45:19;6.80;99.90
52849;DHT22;38714;53.180;5.812;2024-01-25T00:47:45;6.80;99.90
52849;DHT22;38714;53.180;5.812;2024-01-25T00:50:11;6.80;99.90
52849;DHT22;38714;53.180;5.812;2024-01-25T00:52:37;6.80;99.90
52849;DHT22;38714;53.180;5.812;2024-01-25T00:55:03;6.80;99.90
52849;DHT22;38714;53.180;5.812;2024-01-25T00:57:29;6.70;99.90
52849;DHT22;38714;53.180;5.812;2024-01-25T00:59:55;6.70;99.90
52849;DHT22;38714;53.180;5.812;2024-01-25T01:02:22;6.70;99.90
52849;DHT22;38714;53.180;5.812;2024-01-25T01:04:48;6.80;99.90
52849;DHT22;38714;53.180;5.812;2024-01-25T01:07:14;6.70;99.90
52849;DHT22;38714;53.180;5.812;2024-01-25T01:09:40;6.70;99.90
52849;DHT22;38714;53.180;5.812;2024-01-25T01:12:06;6.70;99.90
52849;DHT22;38714;53.180;5.812;2024-01-25T01:14:32;6.60;99.90
52849;DHT22;38714;53.180;5.812;2024-01-25T01:16:58;6.70;99.90
52849;DHT22;38714;53.180;5.812;2024-01-25T01:19:24;6.70;99.90
52849;DHT22;38714;53.180;5.812;2024-01-25T01:21:49;6.70;99.90
52849;DHT22;38714;53.180;5.812;2024-01-25T01:24:15;6.70;99.90
52849;DHT22;38714;53.180;5.812;2024-01-25T01:26:40;6.60;99.90
52849;DHT22;38714;53.180;5.812;2024-01-25T01:29:09;6.70;99.90
52849;DHT22;38714;53.180;5.812;2024-01-25T01:31:35;6.60;99.90
52849;DHT22;38714;53.180;5.812;2024-01-25T01:34:01;6.60;99.90
52849;DHT22;38714;53.180;5.812;2024-01-25T01:36:26;6.60;99.90
52849;DHT22;38714;53.180;5.812;2024-01-25T01:38:52;6.60;99.90
52849;DHT22;38714;53.180;5.812;2024-01-25T01:41:18;6.60;99.90
52849;DHT22;38714;53.180;5.812;2024-01-25T01:43:43;6.60;99.90
52849;DHT22;38714;53.180;5.812;2024-01-25T01:46:18;6.60;99.90
52849;DHT22;38714;53.180;5.812;2024-01-25T01:48:46;6.60;99.90
52849;DHT22;38714;53.180;5.812;2024-01-25T01:51:11;6.50;99.90
52849;DHT22;38714;53.180;5.812;2024-01-25T01:53:37;6.50;99.90
52849;DHT22;38714;53.180;5.812;2024-01-25T01:56:03;6.50;99.90
52849;DHT22;38714;53.180;5.812;2024-01-25T01:58:30;6.50;99.90
52849;DHT22;38714;53.180;5.812;2024-01-25T02:00:56;6.50;99.90
52849;DHT22;38714;53.180;5.812;2024-01-25T02:03:23;6.50;99.90
52849;DHT22;38714;53.180;5.812;2024-01-25T02:05:49;6.40;99.90
52849;DHT22;38714;53.180;5.812;2024-01-25T02:08:14;6.40;99.90
52849;DHT22;38714;53.180;5.812;2024-01-25T02:10:40;6.40;99.90
52849;DHT22;38714;53.180;5.812;2024-01-25T02:13:06;6.40;99.90
52849;DHT22;38714;53.180;5.812;2024-01-25T02:15:31;6.40;99.90
52849;DHT22;38714;53.180;5.812;2024-01-25T02:17:57;6.40;99.90
52849;DHT22;38714;53.180;5.812;2024-01-25T02:20:23;6.30;99.90
52849;DHT22;38714;53.180;5.812;2024-01-25T02:22:48;6.30;99.90
52849;DHT22;38714;53.180;5.812;2024-01-25T02:25:14;6.30;99.90
52849;DHT22;38714;53.180;5.812;2024-01-25T02:27:40;6.30;99.90
52849;DHT22;38714;53.180;5.812;2024-01-25T02:30:06;6.30;99.90
52849;DHT22;38714;53.180;5.812;2024-01-25T02:32:32;6.20;99.90
52849;DHT22;38714;53.180;5.812;2024-01-25T02:34:58;6.30;99.90
52849;DHT22;38714;53.180;5.812;2024-01-25T02:37:23;6.20;99.90
52849;DHT22;38714;53.180;5.812;2024-01-25T02:39:49;6.20;99.90
52849;DHT22;38714;53.180;5.812;2024-01-25T02:42:15;6.30;99.90
52849;DHT22;38714;53.180;5.812;2024-01-25T02:44:42;6.20;99.90
52849;DHT22;38714;53.180;5.812;2024-01-25T02:47:08;6.20;99.90
52849;DHT22;38714;53.180;5.812;2024-01-25T02:49:34;6.20;99.90
52849;DHT22;38714;53.180;5.812;2024-01-25T02:51:59;6.20;99.90
52849;DHT22;38714;53.180;5.812;2024-01-25T02:54:25;6.20;99.90
52849;DHT22;38714;53.180;5.812;2024-01-25T02:56:50;6.20;99.90
52849;DHT22;38714;53.180;5.812;2024-01-25T02:59:16;6.20;99.90
52849;DHT22;38714;53.180;5.812;2024-01-25T03:01:43;6.20;99.90
52849;DHT22;38714;53.180;5.812;2024-01-25T03:04:10;6.10;99.90
52849;DHT22;38714;53.180;5.812;2024-01-25T03:06:35;6.10;99.90
52849;DHT22;38714;53.180;5.812;2024-01-25T03:09:01;6.10;99.90
52849;DHT22;38714;53.180;5.812;2024-01-25T03:11:30;6.10;99.90
52849;DHT22;38714;53.180;5.812;2024-01-25T03:13:56;6.10;99.90
52849;DHT22;38714;53.180;5.812;2024-01-25T03:16:22;6.00;99.90
52849;DHT22;38714;53.180;5.812;2024-01-25T03:18:48;6.00;99.90
52849;DHT22;38714;53.180;5.812;2024-01-25T03:21:14;6.00;99.90
52849;DHT22;38714;53.180;5.812;2024-01-25T03:23:39;6.00;99.90
52849;DHT22;38714;53.180;5.812;2024-01-25T03:26:05;6.00;99.90
52849;DHT22;38714;53.180;5.812;2024-01-25T03:28:31;6.00;99.90
52849;DHT22;38714;53.180;5.812;2024-01-25T03:30:57;5.90;99.90
52849;DHT22;38714;53.180;5.812;2024-01-25T03:33:22;5.90;99.90
52849;DHT22;38714;53.180;5.812;2024-01-25T03:35:48;5.90;99.90
52849;DHT22;38714;53.180;5.812;2024-01-25T03:38:13;5.90;99.90
52849;DHT22;38714;53.180;5.812;2024-01-25T03:40:39;5.90;99.90
52849;DHT22;38714;53.180;5.812;2024-01-25T03:43:05;5.80;99.90
52849;DHT22;38714;53.180;5.812;2024-01-25T03:45:30;5.80;99.90
52849;DHT22;38714;53.180;5.812;2024-01-25T03:47:58;5.80;99.90
52849;DHT22;38714;53.180;5.812;2024-01-25T03:50:23;5.80;99.90
52849;DHT22;38714;53.180;5.812;2024-01-25T03:52:49;5.80;99.90
52849;DHT22;38714;53.180;5.812;2024-01-25T03:55:15;5.80;99.90
52849;DHT22;38714;53.180;5.812;2024-01-25T03:57:40;5.80;99.90
52849;DHT22;38714;53.180;5.812;2024-01-25T04:00:08;5.70;99.90
52849;DHT22;38714;53.180;5.812;2024-01-25T04:02:34;5.70;99.90
52849;DHT22;38714;53.180;5.812;2024-01-25T04:05:00;5.70;99.90
52849;DHT22;38714;53.180;5.812;2024-01-25T04:07:25;5.70;99.90
52849;DHT22;38714;53.180;5.812;2024-01-25T04:09:51;5.70;99.90
52849;DHT22;38714;53.180;5.812;2024-01-25T04:12:16;5.70;99.90
52849;DHT22;38714;53.180;5.812;2024-01-25T04:14:42;5.70;99.90
52849;DHT22;38714;53.180;5.812;2024-01-25T04:17:07;5.70;99.90
52849;DHT22;38714;53.180;5.812;2024-01-25T04:19:33;5.70;99.90
52849;DHT22;38714;53.180;5.812;2024-01-25T04:22:00;5.70;99.90
52849;DHT22;38714;53.180;5.812;2024-01-25T04:24:26;5.70;99.90
52849;DHT22;38714;53.180;5.812;2024-01-25T04:26:51;5.70;99.90
52849;DHT22;38714;53.180;5.812;2024-01-25T04:29:17;5.70;99.90
52849;DHT22;38714;53.180;5.812;2024-01-25T04:31:43;5.70;99.90
52849;DHT22;38714;53.180;5.812;2024-01-25T04:34:10;5.70;99.90
52849;DHT22;38714;53.180;5.812;2024-01-25T04:36:36;5.60;99.90
52849;DHT22;38714;53.180;5.812;2024-01-25T04:39:01;5.60;99.90
52849;DHT22;38714;53.180;5.812;2024-01-25T04:41:27;5.60;99.90
52849;DHT22;38714;53.180;5.812;2024-01-25T04:43:53;5.60;99.90
52849;DHT22;38714;53.180;5.812;2024-01-25T04:46:18;5.60;99.90
52849;DHT22;38714;53.180;5.812;2024-01-25T04:48:44;5.60;99.90
52849;DHT22;38714;53.180;5.812;2024-01-25T04:51:18;5.60;99.90
52849;DHT22;38714;53.180;5.812;2024-01-25T04:53:45;5.50;99.90
52849;DHT22;38714;53.180;5.812;2024-01-25T04:56:11;5.60;99.90
52849;DHT22;38714;53.180;5.812;2024-01-25T04:58:37;5.50;99.90
52849;DHT22;38714;53.180;5.812;2024-01-25T05:01:02;5.50;99.90
52849;DHT22;38714;53.180;5.812;2024-01-25T05:03:28;5.50;99.90
52849;DHT22;38714;53.180;5.812;2024-01-25T05:05:54;5.50;99.90
52849;DHT22;38714;53.180;5.812;2024-01-25T05:08:19;5.50;99.90
52849;DHT22;38714;53.180;5.812;2024-01-25T05:10:45;5.50;99.90
52849;DHT22;38714;53.180;5.812;2024-01-25T05:13:12;5.50;99.90
52849;DHT22;38714;53.180;5.812;2024-01-25T05:15:38;5.50;99.90
52849;DHT22;38714;53.180;5.812;2024-01-25T05:18:04;5.50;99.90
52849;DHT22;38714;53.180;5.812;2024-01-25T05:20:30;5.40;99.90
52849;DHT22;38714;53.180;5.812;2024-01-25T05:23:00;5.50;99.90
52849;DHT22;38714;53.180;5.812;2024-01-25T05:25:26;5.50;99.90
52849;DHT22;38714;53.180;5.812;2024-01-25T05:27:53;5.40;99.90
52849;DHT22;38714;53.180;5.812;2024-01-25T05:30:19;5.50;99.90
52849;DHT22;38714;53.180;5.812;2024-01-25T05:32:44;5.40;99.90
52849;DHT22;38714;53.180;5.812;2024-01-25T05:35:11;5.40;99.90
52849;DHT22;38714;53.180;5.812;2024-01-25T05:37:37;5.40;99.90
52849;DHT22;38714;53.180;5.812;2024-01-25T05:40:02;5.40;99.90
52849;DHT22;38714;53.180;5.812;2024-01-25T05:42:28;5.40;99.90
52849;DHT22;38714;53.180;5.812;2024-01-25T05:44:54;5.50;99.90
52849;DHT22;38714;53.180;5.812;2024-01-25T05:47:19;5.40;99.90
52849;DHT22;38714;53.180;5.812;2024-01-25T05:49:45;5.40;99.90
52849;DHT22;38714;53.180;5.812;2024-01-25T05:52:10;5.50;99.90
52849;DHT22;38714;53.180;5.812;2024-01-25T05:54:36;5.40;99.90
52849;DHT22;38714;53.180;5.812;2024-01-25T05:57:01;5.40;99.90
52849;DHT22;38714;53.180;5.812;2024-01-25T05:59:27;5.40;99.90
52849;DHT22;38714;53.180;5.812;2024-01-25T06:01:53;5.40;99.90
52849;DHT22;38714;53.180;5.812;2024-01-25T06:04:18;5.40;99.90
52849;DHT22;38714;53.180;5.812;2024-01-25T06:06:44;5.40;99.90
52849;DHT22;38714;53.180;5.812;2024-01-25T06:09:10;5.30;99.90
52849;DHT22;38714;53.180;5.812;2024-01-25T06:11:35;5.30;99.90
52849;DHT22;38714;53.180;5.812;2024-01-25T06:14:01;5.30;99.90
52849;DHT22;38714;53.180;5.812;2024-01-25T06:16:27;5.30;99.90
52849;DHT22;38714;53.180;5.812;2024-01-25T06:18:52;5.20;99.90
52849;DHT22;38714;53.180;5.812;2024-01-25T06:21:18;5.20;99.90
52849;DHT22;38714;53.180;5.812;2024-01-25T06:23:44;5.10;99.90
52849;DHT22;38714;53.180;5.812;2024-01-25T06:26:09;5.20;99.90
52849;DHT22;38714;53.180;5.812;2024-01-25T06:28:35;5.10;99.90
52849;DHT22;38714;53.180;5.812;2024-01-25T06:31:03;5.10;99.90
52849;DHT22;38714;53.180;5.812;2024-01-25T06:33:29;5.00;99.90
52849;DHT22;38714;53.180;5.812;2024-01-25T06:35:56;4.90;99.90
52849;DHT22;38714;53.180;5.812;2024-01-25T06:38:21;4.90;99.90
52849;DHT22;38714;53.180;5.812;2024-01-25T06:40:47;4.80;99.90
52849;DHT22;38714;53.180;5.812;2024-01-25T06:43:12;4.80;99.90
52849;DHT22;38714;53.180;5.812;2024-01-25T06:45:38;4.70;99.90
52849;DHT22;38714;53.180;5.812;2024-01-25T06:48:06;4.70;99.90
52849;DHT22;38714;53.180;5.812;2024-01-25T06:50:32;4.70;99.90
52849;DHT22;38714;53.180;5.812;2024-01-25T06:52:59;4.60;99.90
52849;DHT22;38714;53.180;5.812;2024-01-25T06:55:24;4.60;99.90
52849;DHT22;38714;53.180;5.812;2024-01-25T06:57:50;4.60;99.90
52849;DHT22;38714;53.180;5.812;2024-01-25T07:00:15;4.60;99.90
52849;DHT22;38714;53.180;5.812;2024-01-25T07:02:41;4.60;99.90
52849;DHT22;38714;53.180;5.812;2024-01-25T07:05:08;4.60;99.90
52849;DHT22;38714;53.180;5.812;2024-01-25T07:07:34;4.60;99.90
52849;DHT22;38714;53.180;5.812;2024-01-25T07:09:59;4.60;99.90
52849;DHT22;38714;53.180;5.812;2024-01-25T07:12:25;4.60;99.90
52849;DHT22;38714;53.180;5.812;2024-01-25T07:14:51;4.50;99.90
52849;DHT22;38714;53.180;5.812;2024-01-25T07:17:16;4.50;99.90
52849;DHT22;38714;53.180;5.812;2024-01-25T07:19:42;4.50;99.90
52849;DHT22;38714;53.180;5.812;2024-01-25T07:22:07;4.50;99.90
52849;DHT22;38714;53.180;5.812;2024-01-25T07:24:33;4.40;99.90
52849;DHT22;38714;53.180;5.812;2024-01-25T07:26:59;4.40;99.90
52849;DHT22;38714;53.180;5.812;2024-01-25T07:29:25;4.40;99.90
52849;DHT22;38714;53.180;5.812;2024-01-25T07:31:50;4.50;99.90
52849;DHT22;38714;53.180;5.812;2024-01-25T07:34:16;4.40;99.90
52849;DHT22;38714;53.180;5.812;2024-01-25T07:36:42;4.40;99.90
52849;DHT22;38714;53.180;5.812;2024-01-25T07:39:08;4.40;99.90
52849;DHT22;38714;53.180;5.812;2024-01-25T07:41:34;4.40;99.90
52849;DHT22;38714;53.180;5.812;2024-01-25T07:43:59;4.40;99.90
52849;DHT22;38714;53.180;5.812;2024-01-25T07:46:25;4.40;99.90
52849;DHT22;38714;53.180;5.812;2024-01-25T07:48:50;4.40;99.90
52849;DHT22;38714;53.180;5.812;2024-01-25T07:51:16;4.40;99.90
52849;DHT22;38714;53.180;5.812;2024-01-25T07:53:41;4.50;99.90
52849;DHT22;38714;53.180;5.812;2024-01-25T07:56:08;4.50;99.90
52849;DHT22;38714;53.180;5.812;2024-01-25T07:58:35;4.50;99.90
52849;DHT22;38714;53.180;5.812;2024-01-25T08:01:05;4.50;99.90
52849;DHT22;38714;53.180;5.812;2024-01-25T08:03:31;4.50;99.90
52849;DHT22;38714;53.180;5.812;2024-01-25T08:05:58;4.50;99.90
52849;DHT22;38714;53.180;5.812;2024-01-25T08:08:23;4.50;99.90
52849;DHT22;38714;53.180;5.812;2024-01-25T08:10:49;4.50;99.90
52849;DHT22;38714;53.180;5.812;2024-01-25T08:13:14;4.50;99.90
52849;DHT22;38714;53.180;5.812;2024-01-25T08:15:40;4.40;99.90
52849;DHT22;38714;53.180;5.812;2024-01-25T08:18:06;4.40;99.90
52849;DHT22;38714;53.180;5.812;2024-01-25T08:20:32;4.40;99.90
52849;DHT22;38714;53.180;5.812;2024-01-25T08:22:57;4.40;99.90
52849;DHT22;38714;53.180;5.812;2024-01-25T08:25:24;4.50;99.90
52849;DHT22;38714;53.180;5.812;2024-01-25T08:27:49;4.50;99.90
52849;DHT22;38714;53.180;5.812;2024-01-25T08:30:15;4.50;99.90
52849;DHT22;38714;53.180;5.812;2024-01-25T08:32:41;4.50;99.90
52849;DHT22;38714;53.180;5.812;2024-01-25T08:35:07;4.60;99.90
52849;DHT22;38714;53.180;5.812;2024-01-25T08:37:32;4.60;99.90
52849;DHT22;38714;53.180;5.812;2024-01-25T08:39:59;4.60;99.90
52849;DHT22;38714;53.180;5.812;2024-01-25T08:42:24;4.60;99.90
52849;DHT22;38714;53.180;5.812;2024-01-25T08:44:50;4.60;99.90
52849;DHT22;38714;53.180;5.812;2024-01-25T08:47:17;4.60;99.90
52849;DHT22;38714;53.180;5.812;2024-01-25T08:49:42;4.60;99.90
52849;DHT22;38714;53.180;5.812;2024-01-25T08:52:08;4.70;99.90
52849;DHT22;38714;53.180;5.812;2024-01-25T08:54:34;4.70;99.90
52849;DHT22;38714;53.180;5.812;2024-01-25T08:57:03;4.70;99.90
52849;DHT22;38714;53.180;5.812;2024-01-25T08:59:28;4.80;99.90
52849;DHT22;38714;53.180;5.812;2024-01-25T09:01:56;4.80;99.90
52849;DHT22;38714;53.180;5.812;2024-01-25T09:04:22;4.80;99.90
52849;DHT22;38714;53.180;5.812;2024-01-25T09:06:47;4.80;99.90
52849;DHT22;38714;53.180;5.812;2024-01-25T09:09:13;4.90;99.90
52849;DHT22;38714;53.180;5.812;2024-01-25T09:11:38;4.90;99.90
52849;DHT22;38714;53.180;5.812;2024-01-25T09:14:04;4.90;99.90
52849;DHT22;38714;53.180;5.812;2024-01-25T09:16:29;4.90;99.90
52849;DHT22;38714;53.180;5.812;2024-01-25T09:18:55;4.90;99.90
52849;DHT22;38714;53.180;5.812;2024-01-25T09:21:21;4.90;99.90
52849;DHT22;38714;53.180;5.812;2024-01-25T09:23:47;4.90;99.90
52849;DHT22;38714;53.180;5.812;2024-01-25T09:26:12;4.90;99.90
52849;DHT22;38714;53.180;5.812;2024-01-25T09:28:38;4.90;99.90
52849;DHT22;38714;53.180;5.812;2024-01-25T09:31:03;5.00;99.90
52849;DHT22;38714;53.180;5.812;2024-01-25T09:33:29;5.00;99.90
52849;DHT22;38714;53.180;5.812;2024-01-25T09:35:55;5.00;99.90
52849;DHT22;38714;53.180;5.812;2024-01-25T09:38:21;5.00;99.90
52849;DHT22;38714;53.180;5.812;2024-01-25T09:40:47;5.00;99.90
52849;DHT22;38714;53.180;5.812;2024-01-25T09:43:14;5.00;99.90
52849;DHT22;38714;53.180;5.812;2024-01-25T09:45:41;5.00;99.90
52849;DHT22;38714;53.180;5.812;2024-01-25T09:48:07;5.10;99.90
52849;DHT22;38714;53.180;5.812;2024-01-25T09:50:33;5.10;99.90
52849;DHT22;38714;53.180;5.812;2024-01-25T09:52:59;5.10;99.90
52849;DHT22;38714;53.180;5.812;2024-01-25T09:55:26;5.10;99.90
52849;DHT22;38714;53.180;5.812;2024-01-25T09:57:55;5.10;99.90
52849;DHT22;38714;53.180;5.812;2024-01-25T10:00:24;5.10;99.90
52849;DHT22;38714;53.180;5.812;2024-01-25T10:02:50;5.20;99.90
52849;DHT22;38714;53.180;5.812;2024-01-25T10:05:17;5.20;99.90
52849;DHT22;38714;53.180;5.812;2024-01-25T10:07:46;5.30;99.90
52849;DHT22;38714;53.180;5.812;2024-01-25T10:10:13;5.30;99.90
52849;DHT22;38714;53.180;5.812;2024-01-25T10:12:43;5.30;99.90
52849;DHT22;38714;53.180;5.812;2024-01-25T10:15:09;5.40;99.90
52849;DHT22;38714;53.180;5.812;2024-01-25T10:17:34;5.40;99.90
52849;DHT22;38714;53.180;5.812;2024-01-25T10:20:00;5.50;99.90
52849;DHT22;38714;53.180;5.812;2024-01-25T10:22:26;5.50;99.90
52849;DHT22;38714;53.180;5.812;2024-01-25T10:24:52;5.60;99.90
52849;DHT22;38714;53.180;5.812;2024-01-25T10:27:21;5.70;99.90
52849;DHT22;38714;53.180;5.812;2024-01-25T10:29:49;5.70;99.90
52849;DHT22;38714;53.180;5.812;2024-01-25T10:32:14;5.80;99.90
52849;DHT22;38714;53.180;5.812;2024-01-25T10:34:41;5.80;99.90
52849;DHT22;38714;53.180;5.812;2024-01-25T10:37:08;5.80;99.90
52849;DHT22;38714;53.180;5.812;2024-01-25T10:39:34;5.90;99.90
52849;DHT22;38714;53.180;5.812;2024-01-25T10:42:00;5.90;99.90
52849;DHT22;38714;53.180;5.812;2024-01-25T10:44:26;6.00;99.90
52849;DHT22;38714;53.180;5.812;2024-01-25T10:46:52;6.00;99.90
52849;DHT22;38714;53.180;5.812;2024-01-25T10:49:20;6.10;99.90
52849;DHT22;38714;53.180;5.812;2024-01-25T10:51:45;6.20;99.90
52849;DHT22;38714;53.180;5.812;2024-01-25T10:54:12;6.30;99.90
52849;DHT22;38714;53.180;5.812;2024-01-25T10:56:42;6.30;99.90
52849;DHT22;38714;53.180;5.812;2024-01-25T10:59:08;6.40;99.90
52849;DHT22;38714;53.180;5.812;2024-01-25T11:01:34;6.50;99.90
52849;DHT22;38714;53.180;5.812;2024-01-25T11:04:00;6.60;99.90
52849;DHT22;38714;53.180;5.812;2024-01-25T11:06:27;6.60;99.90
52849;DHT22;38714;53.180;5.812;2024-01-25T11:09:06;6.70;99.90
52849;DHT22;38714;53.180;5.812;2024-01-25T11:11:32;6.80;99.90
52849;DHT22;38714;53.180;5.812;2024-01-25T11:14:01;6.80;99.90
52849;DHT22;38714;53.180;5.812;2024-01-25T11:16:29;6.80;99.90
52849;DHT22;38714;53.180;5.812;2024-01-25T11:18:56;6.80;99.90
52849;DHT22;38714;53.180;5.812;2024-01-25T11:21:46;6.80;99.90
52849;DHT22;38714;53.180;5.812;2024-01-25T11:24:22;6.80;99.90
52849;DHT22;38714;53.180;5.812;2024-01-25T11:26:49;6.80;99.90
52849;DHT22;38714;53.180;5.812;2024-01-25T11:29:20;6.80;99.90
52849;DHT22;38714;53.180;5.812;2024-01-25T11:31:48;6.80;99.90
52849;DHT22;38714;53.180;5.812;2024-01-25T11:34:15;6.80;99.90
52849;DHT22;38714;53.180;5.812;2024-01-25T11:36:42;6.80;99.90
52849;DHT22;38714;53.180;5.812;2024-01-25T11:39:12;6.80;99.90
52849;DHT22;38714;53.180;5.812;2024-01-25T11:41:44;6.80;99.90
52849;DHT22;38714;53.180;5.812;2024-01-25T11:44:11;6.80;99.90
52849;DHT22;38714;53.180;5.812;2024-01-25T11:46:36;6.80;99.90
52849;DHT22;38714;53.180;5.812;2024-01-25T11:49:02;6.80;99.90
52849;DHT22;38714;53.180;5.812;2024-01-25T11:51:31;6.80;99.90
52849;DHT22;38714;53.180;5.812;2024-01-25T11:53:56;6.80;99.90
52849;DHT22;38714;53.180;5.812;2024-01-25T11:56:29;6.80;99.90
52849;DHT22;38714;53.180;5.812;2024-01-25T11:58:55;6.80;99.90
52849;DHT22;38714;53.180;5.812;2024-01-25T12:01:23;6.90;99.90
52849;DHT22;38714;53.180;5.812;2024-01-25T12:03:49;6.90;99.90
52849;DHT22;38714;53.180;5.812;2024-01-25T12:06:15;6.90;99.90
52849;DHT22;38714;53.180;5.812;2024-01-25T12:08:40;6.90;99.90
52849;DHT22;38714;53.180;5.812;2024-01-25T12:11:10;6.90;99.90
52849;DHT22;38714;53.180;5.812;2024-01-25T12:13:39;7.00;99.90
52849;DHT22;38714;53.180;5.812;2024-01-25T12:16:06;7.00;99.90
52849;DHT22;38714;53.180;5.812;2024-01-25T12:18:32;7.00;99.90
52849;DHT22;38714;53.180;5.812;2024-01-25T12:20:59;7.00;99.90
52849;DHT22;38714;53.180;5.812;2024-01-25T12:23:34;7.10;99.90
52849;DHT22;38714;53.180;5.812;2024-01-25T12:26:10;7.10;99.90
52849;DHT22;38714;53.180;5.812;2024-01-25T12:28:36;7.10;99.90
52849;DHT22;38714;53.180;5.812;2024-01-25T12:31:04;7.10;99.90
52849;DHT22;38714;53.180;5.812;2024-01-25T12:33:30;7.10;99.90
52849;DHT22;38714;53.180;5.812;2024-01-25T12:35:56;7.10;99.90
52849;DHT22;38714;53.180;5.812;2024-01-25T12:38:22;7.20;99.90
52849;DHT22;38714;53.180;5.812;2024-01-25T12:40:49;7.10;99.90
52849;DHT22;38714;53.180;5.812;2024-01-25T12:43:15;7.20;99.90
52849;DHT22;38714;53.180;5.812;2024-01-25T12:45:41;7.10;99.90
52849;DHT22;38714;53.180;5.812;2024-01-25T12:48:07;7.10;99.90
52849;DHT22;38714;53.180;5.812;2024-01-25T12:50:33;7.10;99.90
52849;DHT22;38714;53.180;5.812;2024-01-25T12:53:00;7.00;99.90
52849;DHT22;38714;53.180;5.812;2024-01-25T12:55:25;7.00;99.90
52849;DHT22;38714;53.180;5.812;2024-01-25T12:57:51;7.00;99.90
52849;DHT22;38714;53.180;5.812;2024-01-25T13:00:17;7.00;99.90
52849;DHT22;38714;53.180;5.812;2024-01-25T13:02:42;7.00;99.90
52849;DHT22;38714;53.180;5.812;2024-01-25T13:05:08;7.10;99.90
52849;DHT22;38714;53.180;5.812;2024-01-25T13:07:34;7.00;99.90
52849;DHT22;38714;53.180;5.812;2024-01-25T13:09:59;7.00;99.90
52849;DHT22;38714;53.180;5.812;2024-01-25T13:12:25;7.10;99.90
52849;DHT22;38714;53.180;5.812;2024-01-25T13:14:50;7.10;99.90
52849;DHT22;38714;53.180;5.812;2024-01-25T13:17:16;7.10;99.90
52849;DHT22;38714;53.180;5.812;2024-01-25T13:19:41;7.10;99.90
52849;DHT22;38714;53.180;5.812;2024-01-25T13:22:07;7.10;99.90
52849;DHT22;38714;53.180;5.812;2024-01-25T13:24:33;7.10;99.90
52849;DHT22;38714;53.180;5.812;2024-01-25T13:26:58;7.20;99.90
52849;DHT22;38714;53.180;5.812;2024-01-25T13:29:24;7.20;99.90
52849;DHT22;38714;53.180;5.812;2024-01-25T13:31:49;7.20;99.90
52849;DHT22;38714;53.180;5.812;2024-01-25T13:34:15;7.20;99.90
52849;DHT22;38714;53.180;5.812;2024-01-25T13:36:41;7.20;99.90
52849;DHT22;38714;53.180;5.812;2024-01-25T13:39:06;7.20;99.90
52849;DHT22;38714;53.180;5.812;2024-01-25T13:41:32;7.20;99.90
52849;DHT22;38714;53.180;5.812;2024-01-25T13:43:58;7.20;99.90
52849;DHT22;38714;53.180;5.812;2024-01-25T13:46:23;7.20;99.90
52849;DHT22;38714;53.180;5.812;2024-01-25T13:48:49;7.20;99.90
52849;DHT22;38714;53.180;5.812;2024-01-25T13:51:14;7.20;99.90
52849;DHT22;38714;53.180;5.812;2024-01-25T13:53:40;7.30;99.90
52849;DHT22;38714;53.180;5.812;2024-01-25T13:56:05;7.30;99.90
52849;DHT22;38714;53.180;5.812;2024-01-25T13:58:31;7.30;99.90
52849;DHT22;38714;53.180;5.812;2024-01-25T14:00:57;7.30;99.90
52849;DHT22;38714;53.180;5.812;2024-01-25T14:03:22;7.30;99.90
52849;DHT22;38714;53.180;5.812;2024-01-25T14:05:48;7.30;99.90
52849;DHT22;38714;53.180;5.812;2024-01-25T14:08:13;7.30;99.90
52849;DHT22;38714;53.180;5.812;2024-01-25T14:10:39;7.30;99.90
52849;DHT22;38714;53.180;5.812;2024-01-25T14:13:06;7.30;99.90
52849;DHT22;38714;53.180;5.812;2024-01-25T14:15:31;7.20;99.90
52849;DHT22;38714;53.180;5.812;2024-01-25T14:17:57;7.30;99.90
52849;DHT22;38714;53.180;5.812;2024-01-25T14:20:22;7.30;99.90
52849;DHT22;38714;53.180;5.812;2024-01-25T14:22:48;7.20;99.90
52849;DHT22;38714;53.180;5.812;2024-01-25T14:25:14;7.20;99.90
52849;DHT22;38714;53.180;5.812;2024-01-25T14:27:40;7.20;99.90
52849;DHT22;38714;53.180;5.812;2024-01-25T14:30:06;7.20;99.90
52849;DHT22;38714;53.180;5.812;2024-01-25T14:32:32;7.20;99.90
52849;DHT22;38714;53.180;5.812;2024-01-25T14:34:58;7.20;99.90
52849;DHT22;38714;53.180;5.812;2024-01-25T14:37:23;7.20;99.90
52849;DHT22;38714;53.180;5.812;2024-01-25T14:39:49;7.10;99.90
52849;DHT22;38714;53.180;5.812;2024-01-25T14:42:15;7.10;99.90
52849;DHT22;38714;53.180;5.812;2024-01-25T14:44:43;7.10;99.90
52849;DHT22;38714;53.180;5.812;2024-01-25T14:47:08;7.10;99.90
52849;DHT22;38714;53.180;5.812;2024-01-25T14:49:34;7.10;99.90
52849;DHT22;38714;53.180;5.812;2024-01-25T14:52:00;7.10;99.90
52849;DHT22;38714;53.180;5.812;2024-01-25T14:54:26;7.10;99.90
52849;DHT22;38714;53.180;5.812;2024-01-25T14:56:51;7.10;99.90
52849;DHT22;38714;53.180;5.812;2024-01-25T14:59:17;7.10;99.90
52849;DHT22;38714;53.180;5.812;2024-01-25T15:01:46;7.10;99.90
52849;DHT22;38714;53.180;5.812;2024-01-25T15:04:11;7.20;99.90
52849;DHT22;38714;53.180;5.812;2024-01-25T15:06:37;7.10;99.90
52849;DHT22;38714;53.180;5.812;2024-01-25T15:09:02;7.10;99.90
52849;DHT22;38714;53.180;5.812;2024-01-25T15:11:28;7.10;99.90
52849;DHT22;38714;53.180;5.812;2024-01-25T15:13:54;7.10;99.90
52849;DHT22;38714;53.180;5.812;2024-01-25T15:16:19;7.10;99.90
52849;DHT22;38714;53.180;5.812;2024-01-25T15:18:45;7.10;99.90
52849;DHT22;38714;53.180;5.812;2024-01-25T15:21:10;7.20;99.90
52849;DHT22;38714;53.180;5.812;2024-01-25T15:23:36;7.20;99.90
52849;DHT22;38714;53.180;5.812;2024-01-25T15:26:03;7.10;99.90
52849;DHT22;38714;53.180;5.812;2024-01-25T15:28:29;7.10;99.90
52849;DHT22;38714;53.180;5.812;2024-01-25T15:30:55;7.10;99.90
52849;DHT22;38714;53.180;5.812;2024-01-25T15:33:20;7.10;99.90
52849;DHT22;38714;53.180;5.812;2024-01-25T15:35:46;7.10;99.90
52849;DHT22;38714;53.180;5.812;2024-01-25T15:38:11;7.20;99.90